createdAt,value
2022-10-16T00:01:45.146Z,13.80
2022-10-16T00:04:13.802Z,13.80
2022-10-16T00:06:42.206Z,13.80
2022-10-16T00:09:12.702Z,13.70
2022-10-16T00:11:43.735Z,13.80
2022-10-16T00:14:16.619Z,13.70
2022-10-16T00:16:45.478Z,13.80
2022-10-16T00:19:14.487Z,13.80
2022-10-16T00:21:43.546Z,13.80
2022-10-16T00:24:12.631Z,13.80
2022-10-16T00:26:41.621Z,13.80
2022-10-16T00:29:10.737Z,13.80
2022-10-16T00:31:40.599Z,13.80
2022-10-16T00:34:08.968Z,13.80
2022-10-16T00:36:37.657Z,13.80
2022-10-16T00:39:06.110Z,13.80
2022-10-16T00:41:35.472Z,13.80
2022-10-16T00:44:05.828Z,13.70
2022-10-16T00:46:40.288Z,13.70
2022-10-16T00:49:13.214Z,13.60
2022-10-16T00:51:43.573Z,13.50
2022-10-16T00:54:15.487Z,13.50
2022-10-16T00:56:44.970Z,13.40
2022-10-16T00:59:18.037Z,13.40
2022-10-16T01:01:46.429Z,13.30
2022-10-16T01:04:16.355Z,13.20
2022-10-16T01:06:51.762Z,13.10
2022-10-16T01:09:26.111Z,13.10
2022-10-16T01:12:04.338Z,13.00
2022-10-16T01:14:42.560Z,12.90
2022-10-16T01:17:15.052Z,12.90
2022-10-16T01:20:02.573Z,12.90
2022-10-16T01:22:40.791Z,12.90
2022-10-16T01:25:16.811Z,12.90
2022-10-16T01:27:48.705Z,12.90
2022-10-16T01:30:23.129Z,12.90
2022-10-16T01:32:56.102Z,13.00
2022-10-16T01:35:27.982Z,13.10
2022-10-16T01:38:02.782Z,13.10
2022-10-16T01:40:32.428Z,13.10
2022-10-16T01:43:05.092Z,13.10
2022-10-16T01:45:35.150Z,13.10
2022-10-16T01:48:08.906Z,13.10
2022-10-16T01:50:41.959Z,13.10
2022-10-16T01:53:13.720Z,13.10
2022-10-16T01:55:46.186Z,13.10
2022-10-16T01:58:17.092Z,13.10
2022-10-16T02:00:49.020Z,13.10
2022-10-16T02:03:20.587Z,13.20
2022-10-16T02:05:51.560Z,13.20
2022-10-16T02:08:20.228Z,13.20
2022-10-16T02:10:51.620Z,13.20
2022-10-16T02:13:27.271Z,13.20
2022-10-16T02:15:55.841Z,13.10
2022-10-16T02:18:27.500Z,13.10
2022-10-16T02:20:59.809Z,13.10
2022-10-16T02:23:35.440Z,13.00
2022-10-16T02:26:11.370Z,13.00
2022-10-16T02:28:47.177Z,12.90
2022-10-16T02:31:23.883Z,12.90
2022-10-16T02:33:55.259Z,12.80
2022-10-16T02:36:26.074Z,12.80
2022-10-16T02:38:55.230Z,12.80
2022-10-16T02:41:25.300Z,12.80
2022-10-16T02:43:56.142Z,12.80
2022-10-16T02:46:24.569Z,12.80
2022-10-16T02:48:53.008Z,12.80
2022-10-16T02:51:21.476Z,12.80
2022-10-16T02:54:35.318Z,12.80
2022-10-16T02:57:05.068Z,12.80
2022-10-16T02:59:41.300Z,12.80
2022-10-16T03:02:13.300Z,12.80
2022-10-16T03:04:41.731Z,12.80
2022-10-16T03:07:13.399Z,12.80
2022-10-16T03:09:41.839Z,12.80
2022-10-16T03:12:10.383Z,12.90
2022-10-16T03:14:40.907Z,12.90
2022-10-16T03:17:09.532Z,12.90
2022-10-16T03:19:38.071Z,12.90
2022-10-16T03:22:06.343Z,12.90
2022-10-16T03:24:34.788Z,13.00
2022-10-16T03:27:03.355Z,13.00
2022-10-16T03:29:33.212Z,12.90
2022-10-16T03:32:03.558Z,13.00
2022-10-16T03:34:32.026Z,12.90
2022-10-16T03:37:00.559Z,13.00
2022-10-16T03:39:29.309Z,13.00
2022-10-16T03:41:57.583Z,13.00
2022-10-16T03:44:26.040Z,13.00
2022-10-16T03:46:54.509Z,12.90
2022-10-16T03:49:24.201Z,12.90
2022-10-16T03:51:52.635Z,12.90
2022-10-16T03:54:21.042Z,12.90
2022-10-16T03:56:49.421Z,12.90
2022-10-16T03:59:17.980Z,12.90
2022-10-16T04:01:46.650Z,12.90
2022-10-16T04:04:14.882Z,12.90
2022-10-16T04:06:44.761Z,13.00
2022-10-16T04:09:13.468Z,13.00
2022-10-16T04:11:41.951Z,13.00
2022-10-16T04:14:10.431Z,13.10
2022-10-16T04:16:38.720Z,13.10
2022-10-16T04:19:07.212Z,13.10
2022-10-16T04:21:35.809Z,13.10
2022-10-16T04:24:05.968Z,13.10
2022-10-16T04:26:34.595Z,13.10
2022-10-16T04:29:02.936Z,13.10
2022-10-16T04:31:31.262Z,13.20
2022-10-16T04:33:59.969Z,13.20
2022-10-16T04:36:29.316Z,13.20
2022-10-16T04:38:57.870Z,13.20
2022-10-16T04:41:27.751Z,13.30
2022-10-16T04:43:56.168Z,13.30
2022-10-16T04:46:24.598Z,13.30
2022-10-16T04:48:53.103Z,13.30
2022-10-16T04:51:21.379Z,13.30
2022-10-16T04:53:49.690Z,13.30
2022-10-16T04:56:18.160Z,13.40
2022-10-16T04:58:48.010Z,13.40
2022-10-16T05:01:16.651Z,13.40
2022-10-16T05:03:45.144Z,13.40
2022-10-16T05:06:13.581Z,13.40
2022-10-16T05:08:41.930Z,13.50
2022-10-16T05:11:10.308Z,13.50
2022-10-16T05:13:38.653Z,13.50
2022-10-16T05:16:09.058Z,13.60
2022-10-16T05:18:43.282Z,13.50
2022-10-16T05:21:11.843Z,13.50
2022-10-16T05:23:40.197Z,13.50
2022-10-16T05:26:08.498Z,13.40
2022-10-16T05:28:36.966Z,13.40
2022-10-16T05:31:08.510Z,13.40
2022-10-16T05:33:37.107Z,13.40
2022-10-16T05:36:08.208Z,13.30
2022-10-16T05:38:37.211Z,13.30
2022-10-16T05:41:06.231Z,13.30
2022-10-16T05:43:35.020Z,13.30
2022-10-16T05:46:06.208Z,13.30
2022-10-16T05:48:36.113Z,13.30
2022-10-16T05:51:07.365Z,13.30
2022-10-16T05:53:37.912Z,13.30
2022-10-16T05:56:07.223Z,13.30
2022-10-16T05:58:37.120Z,13.30
2022-10-16T06:01:08.165Z,13.30
2022-10-16T06:03:38.028Z,13.30
2022-10-16T06:06:14.432Z,13.30
2022-10-16T06:08:43.072Z,13.30
2022-10-16T06:11:12.704Z,13.30
2022-10-16T06:13:42.842Z,13.30
2022-10-16T06:16:12.610Z,13.30
2022-10-16T06:18:42.795Z,13.40
2022-10-16T06:21:12.590Z,13.40
2022-10-16T06:23:41.047Z,13.40
2022-10-16T06:26:10.475Z,13.50
2022-10-16T06:28:39.604Z,13.50
2022-10-16T06:31:09.388Z,13.60
2022-10-16T06:33:38.242Z,13.70
2022-10-16T06:36:10.161Z,13.70
2022-10-16T06:38:39.142Z,13.80
2022-10-16T06:41:09.320Z,13.90
2022-10-16T06:43:37.881Z,14.10
2022-10-16T06:46:08.768Z,14.20
2022-10-16T06:48:37.443Z,14.30
2022-10-16T06:51:09.101Z,14.30
2022-10-16T06:53:39.980Z,14.30
2022-10-16T06:56:19.874Z,14.20
2022-10-16T06:58:49.290Z,14.20
2022-10-16T07:01:19.260Z,14.20
2022-10-16T07:03:48.493Z,14.30
2022-10-16T07:06:20.510Z,14.40
2022-10-16T07:08:49.499Z,14.40
2022-10-16T07:11:19.428Z,14.60
2022-10-16T07:13:52.679Z,15.00
2022-10-16T07:16:25.151Z,15.10
2022-10-16T07:18:58.875Z,15.20
2022-10-16T07:21:30.859Z,15.40
2022-10-16T07:24:02.446Z,15.80
2022-10-16T07:26:33.079Z,16.00
2022-10-16T07:29:01.917Z,16.40
2022-10-16T07:31:30.840Z,16.60
2022-10-16T07:34:01.238Z,16.80
2022-10-16T07:36:31.147Z,16.70
2022-10-16T07:39:00.263Z,16.60
2022-10-16T07:41:29.403Z,16.60
2022-10-16T07:44:01.316Z,16.80
2022-10-16T07:46:30.150Z,16.70
2022-10-16T07:48:58.661Z,16.80
2022-10-16T07:51:28.620Z,16.70
2022-10-16T07:53:58.341Z,16.70
2022-10-16T07:56:26.879Z,16.60
2022-10-16T07:58:55.767Z,16.30
2022-10-16T08:01:24.280Z,16.20
2022-10-16T08:03:54.123Z,16.20
2022-10-16T08:06:27.558Z,16.30
2022-10-16T08:08:58.062Z,16.50
2022-10-16T08:11:27.024Z,16.80
2022-10-16T08:13:55.509Z,16.90
2022-10-16T08:16:24.241Z,17.10
2022-10-16T08:18:55.814Z,17.50
2022-10-16T08:21:25.478Z,17.70
2022-10-16T08:23:58.064Z,17.80
2022-10-16T08:26:29.260Z,18.20
2022-10-16T08:28:58.209Z,18.20
2022-10-16T08:31:28.291Z,18.30
2022-10-16T08:33:56.979Z,18.40
2022-10-16T08:36:25.322Z,18.70
2022-10-16T08:38:55.515Z,18.80
2022-10-16T08:41:45.839Z,18.80
2022-10-16T08:44:31.321Z,18.90
2022-10-16T08:47:08.914Z,18.70
2022-10-16T08:49:39.109Z,18.90
2022-10-16T08:52:12.978Z,18.90
2022-10-16T08:54:45.642Z,18.90
2022-10-16T08:57:19.832Z,18.80
2022-10-16T08:59:53.455Z,18.80
2022-10-16T09:02:32.030Z,19.20
2022-10-16T09:05:25.316Z,19.50
2022-10-16T09:08:09.122Z,19.40
2022-10-16T09:10:53.394Z,19.80
2022-10-16T09:13:29.950Z,20.00
2022-10-16T09:16:10.309Z,19.90
2022-10-16T09:18:45.916Z,20.00
2022-10-16T09:21:19.271Z,20.10
2022-10-16T09:23:48.153Z,19.70
2022-10-16T09:26:19.262Z,19.60
2022-10-16T09:28:47.977Z,19.80
2022-10-16T09:31:23.312Z,19.80
2022-10-16T09:33:56.681Z,20.00
2022-10-16T09:36:27.559Z,19.90
2022-10-16T09:39:06.604Z,20.00
2022-10-16T09:41:38.218Z,19.90
2022-10-16T09:44:18.383Z,19.60
2022-10-16T09:46:48.247Z,19.70
2022-10-16T09:49:24.709Z,19.60
2022-10-16T09:52:04.618Z,19.50
2022-10-16T09:54:32.959Z,19.80
2022-10-16T09:57:08.217Z,19.70
2022-10-16T09:59:36.696Z,19.70
2022-10-16T10:02:13.447Z,19.70
2022-10-16T10:04:47.058Z,19.50
2022-10-16T10:07:21.153Z,19.70
2022-10-16T10:09:49.724Z,19.60
2022-10-16T10:12:24.428Z,19.20
2022-10-16T10:14:58.117Z,19.30
2022-10-16T10:17:29.379Z,19.60
2022-10-16T10:19:59.697Z,19.50
2022-10-16T10:22:32.014Z,19.30
2022-10-16T10:25:14.510Z,19.20
2022-10-16T10:27:56.229Z,19.00
2022-10-16T10:30:29.748Z,19.60
2022-10-16T10:33:14.809Z,20.00
2022-10-16T10:35:49.597Z,20.20
2022-10-16T10:38:32.653Z,20.30
2022-10-16T10:41:16.858Z,20.70
2022-10-16T10:43:56.674Z,20.80
2022-10-16T10:46:34.369Z,21.30
2022-10-16T10:49:24.809Z,21.70
2022-10-16T10:52:04.088Z,21.60
2022-10-16T10:54:40.350Z,21.20
2022-10-16T10:57:15.467Z,20.80
2022-10-16T11:00:16.900Z,20.50
2022-10-16T11:02:52.638Z,20.20
2022-10-16T11:05:33.381Z,20.60
2022-10-16T11:08:05.957Z,20.40
2022-10-16T11:10:46.794Z,20.30
2022-10-16T11:13:24.226Z,20.30
2022-10-16T11:15:57.918Z,20.20
2022-10-16T11:18:33.231Z,20.40
2022-10-16T11:21:07.760Z,20.30
2022-10-16T11:23:42.421Z,20.20
2022-10-16T11:26:18.538Z,20.10
2022-10-16T11:28:51.604Z,20.10
2022-10-16T11:31:26.927Z,20.10
2022-10-16T11:34:04.331Z,20.00
2022-10-16T11:36:40.394Z,20.00
2022-10-16T11:39:20.769Z,19.90
2022-10-16T11:41:53.730Z,19.70
2022-10-16T11:44:40.306Z,19.70
2022-10-16T11:47:46.689Z,19.60
2022-10-16T11:50:31.742Z,19.40
2022-10-16T11:53:07.329Z,19.10
2022-10-16T11:55:41.813Z,19.10
2022-10-16T11:58:22.884Z,19.20
2022-10-16T12:00:59.942Z,19.50
2022-10-16T12:03:35.174Z,19.80
2022-10-16T12:06:29.941Z,20.10
2022-10-16T12:09:01.918Z,20.20
2022-10-16T12:11:39.283Z,20.20
2022-10-16T12:17:38.553Z,20.10
2022-10-16T12:20:27.152Z,20.70
2022-10-16T12:22:57.997Z,21.20
2022-10-16T12:25:30.761Z,21.70
2022-10-16T12:28:02.568Z,22.10
2022-10-16T12:30:35.903Z,22.30
2022-10-16T12:33:07.529Z,22.90
2022-10-16T12:35:45.548Z,23.40
2022-10-16T12:38:22.416Z,23.50
2022-10-16T12:41:01.361Z,24.00
2022-10-16T12:43:39.150Z,24.10
2022-10-16T12:46:27.087Z,24.40
2022-10-16T12:49:06.501Z,24.40
2022-10-16T12:51:38.838Z,24.60
2022-10-16T12:54:14.764Z,25.00
2022-10-16T12:56:57.110Z,25.00
2022-10-16T12:59:36.639Z,24.80
2022-10-16T13:02:25.551Z,24.40
2022-10-16T13:05:17.800Z,24.90
2022-10-16T13:07:57.689Z,25.30
2022-10-16T13:10:34.111Z,24.70
2022-10-16T13:13:31.497Z,24.80
2022-10-16T13:16:19.656Z,25.00
2022-10-16T13:19:00.106Z,25.10
2022-10-16T13:21:39.625Z,24.70
2022-10-16T13:24:21.550Z,24.50
2022-10-16T13:27:05.414Z,25.20
2022-10-16T13:29:58.992Z,25.60
2022-10-16T13:32:48.176Z,25.20
2022-10-16T13:35:40.968Z,24.80
2022-10-16T13:38:20.098Z,24.00
2022-10-16T13:41:10.294Z,23.40
2022-10-16T13:44:00.490Z,22.70
2022-10-16T13:47:05.390Z,22.30
2022-10-16T13:49:48.941Z,21.90
2022-10-16T13:52:26.136Z,21.30
2022-10-16T13:55:02.385Z,21.10
2022-10-16T13:57:47.888Z,21.90
2022-10-16T14:00:44.390Z,22.70
2022-10-16T14:03:43.491Z,23.60
2022-10-16T14:06:36.410Z,24.10
2022-10-16T14:09:29.926Z,24.30
2022-10-16T14:12:11.717Z,24.10
2022-10-16T14:15:03.210Z,24.60
2022-10-16T14:17:42.981Z,24.80
2022-10-16T14:20:44.999Z,24.80
2022-10-16T14:23:45.841Z,25.20
2022-10-16T14:26:28.052Z,25.80
2022-10-16T14:29:46.194Z,26.20
2022-10-16T14:32:39.263Z,26.30
2022-10-16T14:35:53.643Z,26.00
2022-10-16T14:44:54.177Z,26.10
2022-10-16T14:47:37.702Z,25.70
2022-10-16T14:50:28.609Z,26.00
2022-10-16T14:53:25.363Z,26.00
2022-10-16T14:56:21.669Z,26.00
2022-10-16T14:59:31.076Z,25.30
2022-10-16T15:02:32.430Z,24.50
2022-10-16T15:05:33.909Z,23.90
2022-10-16T15:08:48.788Z,23.20
2022-10-16T15:15:03.273Z,22.90
2022-10-16T15:17:56.209Z,22.80
2022-10-16T15:24:01.494Z,22.20
2022-10-16T15:27:07.237Z,21.90
2022-10-16T15:29:46.832Z,21.40
2022-10-16T15:32:51.147Z,21.00
2022-10-16T15:35:49.129Z,20.80
2022-10-16T15:38:22.266Z,20.60
2022-10-16T15:41:30.594Z,20.40
2022-10-16T15:44:10.779Z,20.10
2022-10-16T15:46:57.384Z,19.90
2022-10-16T15:49:55.381Z,19.70
2022-10-16T15:52:47.408Z,19.50
2022-10-16T15:59:16.231Z,19.00
2022-10-16T16:02:22.122Z,18.70
2022-10-16T16:05:27.359Z,18.50
2022-10-16T16:12:15.848Z,18.30
2022-10-16T16:14:58.202Z,18.10
2022-10-16T16:20:55.597Z,17.90
2022-10-16T16:27:13.961Z,17.80
2022-10-16T16:30:05.666Z,17.70
2022-10-16T16:33:01.623Z,17.50
2022-10-16T16:42:17.655Z,17.40
2022-10-16T16:44:55.812Z,17.30
2022-10-16T16:47:45.191Z,17.30
2022-10-16T16:54:28.063Z,17.20
2022-10-16T16:57:20.773Z,17.10
2022-10-16T17:00:28.120Z,17.00
2022-10-16T17:03:11.136Z,17.00
2022-10-16T17:06:12.013Z,16.90
2022-10-16T17:08:58.095Z,16.80
2022-10-16T17:11:42.113Z,16.70
2022-10-16T17:14:27.435Z,16.60
2022-10-16T17:17:08.054Z,16.50
2022-10-16T17:19:51.276Z,16.40
2022-10-16T17:22:41.678Z,16.40
2022-10-16T17:25:49.893Z,16.40
2022-10-16T17:28:38.391Z,16.30
2022-10-16T17:31:45.019Z,16.20
2022-10-16T17:34:26.181Z,16.20
2022-10-16T17:37:01.173Z,16.10
2022-10-16T17:39:52.942Z,16.00
2022-10-16T17:42:50.342Z,15.90
2022-10-16T17:45:39.826Z,15.80
2022-10-16T17:51:33.582Z,15.70
2022-10-16T17:54:20.198Z,15.60
2022-10-16T17:57:29.438Z,15.50
2022-10-16T18:00:30.907Z,15.30
2022-10-16T18:06:38.194Z,15.20
2022-10-16T18:09:09.167Z,15.20
2022-10-16T18:11:37.977Z,15.20
2022-10-16T18:14:07.066Z,15.10
2022-10-16T18:16:39.693Z,15.10
2022-10-16T18:19:08.324Z,15.00
2022-10-16T18:21:37.189Z,14.90
2022-10-16T18:24:06.071Z,14.90
2022-10-16T18:26:34.862Z,14.90
2022-10-16T18:29:07.411Z,14.80
2022-10-16T18:31:40.385Z,14.80
2022-10-16T18:34:12.181Z,14.80
2022-10-16T18:36:43.138Z,14.70
2022-10-16T18:39:13.271Z,14.70
2022-10-16T18:41:44.851Z,14.60
2022-10-16T18:44:14.195Z,14.60
2022-10-16T18:46:44.236Z,14.50
2022-10-16T18:49:13.979Z,14.50
2022-10-16T18:51:44.174Z,14.40
2022-10-16T18:54:13.809Z,14.30
2022-10-16T18:56:42.877Z,14.20
2022-10-16T18:59:12.012Z,14.10
2022-10-16T19:01:42.604Z,14.00
2022-10-16T19:04:14.987Z,13.90
2022-10-16T19:06:45.861Z,13.90
2022-10-16T19:09:16.487Z,13.90
2022-10-16T19:11:46.106Z,13.90
2022-10-16T19:14:16.591Z,13.90
2022-10-16T19:16:45.798Z,13.90
2022-10-16T19:19:18.520Z,13.90
2022-10-16T19:21:48.314Z,13.90
2022-10-16T19:24:18.316Z,13.90
2022-10-16T19:26:47.033Z,13.90
2022-10-16T19:29:15.724Z,13.90
2022-10-16T19:31:44.379Z,13.90
2022-10-16T19:34:13.492Z,13.90
2022-10-16T19:36:43.731Z,13.90
2022-10-16T19:39:17.330Z,13.90
2022-10-16T19:41:47.589Z,13.90
2022-10-16T19:44:19.070Z,13.90
2022-10-16T19:46:49.399Z,14.00
2022-10-16T19:49:21.782Z,13.90
2022-10-16T19:51:54.594Z,14.00
2022-10-16T19:54:23.300Z,13.90
2022-10-16T19:56:52.328Z,14.00
2022-10-16T19:59:22.116Z,14.00
2022-10-16T20:01:50.927Z,14.00
2022-10-16T20:04:19.440Z,14.00
2022-10-16T20:06:48.002Z,14.00
2022-10-16T20:09:17.703Z,14.00
2022-10-16T20:11:46.353Z,14.00
2022-10-16T20:14:14.738Z,14.00
2022-10-16T20:16:43.329Z,14.00
2022-10-16T20:19:12.402Z,14.00
2022-10-16T20:21:41.049Z,14.00
2022-10-16T20:24:09.566Z,14.00
2022-10-16T20:26:39.918Z,14.00
2022-10-16T20:29:08.760Z,14.00
2022-10-16T20:31:38.252Z,14.10
2022-10-16T20:34:08.066Z,14.10
2022-10-16T20:36:38.329Z,14.10
2022-10-16T20:39:07.361Z,14.10
2022-10-16T20:41:35.908Z,14.10
2022-10-16T20:44:06.442Z,14.20
2022-10-16T20:46:35.163Z,14.20
2022-10-16T20:49:10.838Z,14.20
2022-10-16T20:51:45.687Z,14.20
2022-10-16T20:54:14.222Z,14.20
2022-10-16T20:56:44.928Z,14.20
2022-10-16T20:59:14.930Z,14.10
2022-10-16T21:01:43.478Z,14.10
2022-10-16T21:04:12.032Z,14.10
2022-10-16T21:06:41.419Z,14.10
2022-10-16T21:09:10.244Z,14.10
2022-10-16T21:11:39.759Z,14.10
2022-10-16T21:14:09.521Z,14.10
2022-10-16T21:16:39.383Z,14.10
2022-10-16T21:19:08.929Z,14.00
2022-10-16T21:21:39.024Z,14.00
2022-10-16T21:24:12.161Z,14.00
2022-10-16T21:26:43.549Z,14.00
2022-10-16T21:29:12.228Z,13.90
2022-10-16T21:31:42.791Z,13.90
2022-10-16T21:34:11.314Z,13.90
2022-10-16T21:36:42.378Z,13.90
2022-10-16T21:39:13.245Z,13.90
2022-10-16T21:41:42.413Z,13.90
2022-10-16T21:44:11.154Z,13.90
2022-10-16T21:46:43.561Z,13.90
2022-10-16T21:49:14.710Z,13.90
2022-10-16T21:51:45.329Z,13.90
2022-10-16T21:54:15.420Z,13.90
2022-10-16T21:56:43.991Z,13.90
2022-10-16T21:59:14.817Z,13.90
2022-10-16T22:01:45.072Z,13.90
2022-10-16T22:04:14.468Z,13.90
2022-10-16T22:06:45.006Z,13.90
2022-10-16T22:09:14.604Z,13.90
2022-10-16T22:11:44.879Z,13.90
2022-10-16T22:14:14.778Z,13.90
2022-10-16T22:16:45.387Z,13.80
2022-10-16T22:19:15.161Z,13.80
2022-10-16T22:21:45.551Z,13.80
2022-10-16T22:24:14.089Z,13.70
2022-10-16T22:26:42.945Z,13.70
2022-10-16T22:29:14.763Z,13.70
2022-10-16T22:31:45.411Z,13.60
2022-10-16T22:34:15.552Z,13.60
2022-10-16T22:36:44.276Z,13.50
2022-10-16T22:39:12.808Z,13.40
2022-10-16T22:41:41.309Z,13.40
2022-10-16T22:44:13.541Z,13.30
2022-10-16T22:46:41.911Z,13.30
2022-10-16T22:49:11.759Z,13.20
2022-10-16T22:51:40.299Z,13.20
2022-10-16T22:54:08.791Z,13.20
2022-10-16T22:56:37.060Z,13.10
2022-10-16T22:59:05.871Z,13.10
2022-10-16T23:01:37.802Z,13.10
2022-10-16T23:04:07.010Z,13.10
2022-10-16T23:06:37.171Z,13.00
2022-10-16T23:09:05.783Z,13.00
2022-10-16T23:11:34.219Z,13.00
2022-10-16T23:14:02.610Z,12.90
2022-10-16T23:16:31.622Z,12.90
2022-10-16T23:19:00.148Z,12.90
2022-10-16T23:21:28.792Z,12.90
2022-10-16T23:23:59.163Z,12.80
2022-10-16T23:26:28.432Z,12.80
2022-10-16T23:28:58.634Z,12.80
2022-10-16T23:31:27.411Z,12.70
2022-10-16T23:33:57.079Z,12.70
2022-10-16T23:36:26.110Z,12.60
2022-10-16T23:38:55.743Z,12.60
2022-10-16T23:41:25.781Z,12.60
2022-10-16T23:43:54.462Z,12.60
2022-10-16T23:48:51.399Z,12.50
2022-10-16T23:51:19.948Z,12.50
2022-10-16T23:53:48.529Z,12.40
2022-10-16T23:56:17.028Z,12.40
2022-10-16T23:58:47.230Z,12.40
